Flight ASXVIP5X

  • Submitted By: Krzysztof H. Blaszkow
  • Departure Airport: Cork Airport (EICK)
  • Arrival Airport: Dublin (EIDW)
  • Aircraft: BE58 (EJ-IAWH)
  • Flight Time: 01.22.13
  • Date Submitted: 03/25/2017
  • Route: TISMO W10 SUTEX
  • Status: Accepted
Flight Details
Gross Revenue:
(5 load / € 450.00 per unit
€ 2,250.00
Fuel Cost:
(76.2035 fuel used @ 0.45 / unit)
€ 34.29

Additional Log Information:

View Log

[20:08] - Carenado BARON B58 GOLD GREEN
[20:08] - Flight ASXVIP5X is ready to depart EICK with a final destination of EIDW.
[20:08] - Parking Brake Applied
[20:08] - Beacon Light ON
[20:08] - Instrument Lights ON
[20:08] - Boarding
[20:08] - ADF1 - 284.0
[20:08] - ADF2 - 240.0
[20:08] - NAV1 - 109.90
[20:08] - NAV2 - 110.60
[20:08] - COM1 - 122.80
[20:08] - COM2 - 127.80
[20:08] - Transponder - 2200
[20:09] - NAV1 - 114.60
[20:12] - Engine 2 Started
[20:12] - Engine 1 Started
[20:12] - Parking Brake Released
[20:13] - Taxi Lights ON 0AGL
[20:13] - Pushing Back from the gate
[20:13] - Flaps to position 1
[20:15] - Taxiing to Runway
[20:16] - Strobe Lights ON 0AGL
[20:16] - Landing Lights ON 0AGL
[20:16] - Taxi Lights OFF 0AGL
[20:17] - Taking Off with 5 passengers on board
[20:18] - Take off at 85kts, with a pitch of 8deg and 406lbs of fuel on board
[20:18] - Wind Heading 40 | Wind Speed 9kts | Temperature 10 deg C
[20:18] - METAR Departure: EICK 252000Z 05009KT 9999 FEW018 SCT200 11/M01 Q1026 NOSIG

[20:18] - Climbing to TOC
[20:18] - Flaps to position 0 at 1070ft and 124kts
[20:20] - AutoPilot Engaged at 4830AGL
[20:26] - Landing Lights OFF 8002AGL
[20:26] - NAV1 - 109.90
[20:27] - NAV1 - 114.90
[20:36] - Gear up at 12865AGL
[20:36] - Gear down at 12625AGL
[20:36] - Gear up at 12392AGL
[20:36] - Gear down at 12631AGL
[20:37] - Gear up at 12697AGL
[20:37] - TOC reached
[20:37] - Cruise started
[20:41] - Gear down at 12871AGL
[20:41] - Gear up at 12865AGL
[20:58] - TOD reached
[20:58] - Descending to destination
[20:59] - Landing Lights ON 10190AGL
[21:09] - NAV1 - 111.35
[21:19] - Landing Shortly
[21:20] - COM1 - 118.60
[21:21] - AutoPilot Disengaged at 2897AGL
[21:21] - Flaps to position 1 at 1913ft and 192kts
[21:22] - Gear down at 1069AGL
[21:23] - Landed at -125fpm. With 243lbs of fuel onboard and a pitch angle of 1deg.
[21:23] - Wind Heading 38 | Wind Speed 5kts | Temperature 7 deg C
[21:23] - METAR Arrival: EIDW 252100Z 02006KT CAVOK 04/02 Q1029 NOSIG

[21:23] - Flaps to position 0
[21:24] - Landing Lights OFF 3AGL
[21:24] - Strobe Lights OFF 3AGL
[21:24] - Taxiing to Gate
[21:25] - Taxi Lights ON 3AGL
[21:29] - Parking Brake Applied
[21:30] - Arrived safely at EIDW. We hope you enjoyed your flight!
[21:30] - Taxi Lights OFF 3AGL
[21:30] - Engine 1 Stopped
[21:30] - Engine 2 Stopped
[21:31] - Carenado BARON B58 GOLD GREEN
[21:31] - MaxSim Rate: 1x
[21:31] - SiouxAcars ver: 1.0.1.2

Route Map